createdAt,value
2019-02-20T00:00:52.544Z,0.00
2019-02-20T00:01:52.466Z,0.00
2019-02-20T00:02:52.434Z,0.00
2019-02-20T00:03:52.385Z,0.00
2019-02-20T00:04:52.337Z,0.00
2019-02-20T00:05:52.321Z,0.00
2019-02-20T00:06:52.282Z,0.00
2019-02-20T00:07:52.215Z,0.00
2019-02-20T00:08:52.170Z,0.00
2019-02-20T00:09:52.114Z,0.00
2019-02-20T00:10:52.095Z,0.00
2019-02-20T00:11:52.030Z,0.00
2019-02-20T00:12:51.988Z,0.00
2019-02-20T00:13:51.936Z,0.00
2019-02-20T00:14:51.890Z,0.00
2019-02-20T00:15:51.869Z,0.00
2019-02-20T00:16:51.802Z,0.00
2019-02-20T00:17:51.766Z,0.00
2019-02-20T00:18:51.722Z,0.00
2019-02-20T00:19:51.692Z,0.00
2019-02-20T00:20:51.625Z,0.00
2019-02-20T00:21:51.588Z,0.00
2019-02-20T00:22:51.541Z,0.00
2019-02-20T00:23:51.518Z,0.00
2019-02-20T00:24:51.452Z,0.00
2019-02-20T00:25:51.403Z,0.00
2019-02-20T00:26:51.362Z,0.00
2019-02-20T00:27:51.320Z,0.00
2019-02-20T00:28:51.299Z,0.00
2019-02-20T00:29:51.254Z,0.00
2019-02-20T00:30:51.182Z,0.00
2019-02-20T00:31:51.137Z,0.00
2019-02-20T00:32:51.090Z,0.00
2019-02-20T00:33:51.074Z,0.00
2019-02-20T00:34:51.009Z,0.00
2019-02-20T00:35:50.963Z,0.00
2019-02-20T00:36:50.944Z,0.00
2019-02-20T00:37:50.869Z,0.00
2019-02-20T00:38:50.827Z,0.00
2019-02-20T00:39:50.778Z,0.00
2019-02-20T00:40:50.737Z,0.00
2019-02-20T00:41:50.725Z,0.00
2019-02-20T00:42:50.665Z,0.00
2019-02-20T00:43:50.608Z,0.00
2019-02-20T00:44:50.563Z,0.00
2019-02-20T00:45:50.519Z,0.00
2019-02-20T00:46:50.499Z,0.00
2019-02-20T00:47:50.431Z,0.00
2019-02-20T00:48:50.392Z,0.00
2019-02-20T00:49:50.361Z,0.00
2019-02-20T00:50:50.310Z,0.00
2019-02-20T00:51:50.255Z,0.00
2019-02-20T00:52:50.602Z,0.00
2019-02-20T00:53:50.175Z,0.00
2019-02-20T00:54:50.118Z,0.00
2019-02-20T00:55:50.073Z,0.00
2019-02-20T00:56:50.039Z,0.00
2019-02-20T00:57:49.999Z,0.00
2019-02-20T00:58:49.937Z,0.00
2019-02-20T00:59:49.898Z,0.00
2019-02-20T01:00:49.876Z,0.00
2019-02-20T01:01:49.804Z,0.00
2019-02-20T01:02:49.753Z,0.00
2019-02-20T01:03:49.710Z,0.00
2019-02-20T01:04:49.689Z,0.00
2019-02-20T01:05:49.629Z,0.00
2019-02-20T01:06:49.582Z,0.00
2019-02-20T01:07:49.541Z,0.00
2019-02-20T01:08:49.519Z,0.00
2019-02-20T01:09:49.448Z,0.00
2019-02-20T01:10:49.420Z,0.00
2019-02-20T01:11:49.367Z,0.00
2019-02-20T01:12:49.308Z,0.00
2019-02-20T01:13:49.271Z,0.00
2019-02-20T01:14:49.253Z,0.00
2019-02-20T01:15:49.171Z,0.00
2019-02-20T01:16:49.131Z,0.00
2019-02-20T01:17:49.090Z,0.00
2019-02-20T01:18:49.047Z,0.00
2019-02-20T01:19:49.027Z,0.00
2019-02-20T01:20:48.954Z,0.00
2019-02-20T01:21:48.908Z,0.00
2019-02-20T01:22:48.884Z,0.00
2019-02-20T01:23:48.841Z,0.00
2019-02-20T01:24:48.769Z,0.00
2019-02-20T01:25:48.730Z,0.00
2019-02-20T01:26:48.684Z,0.00
2019-02-20T01:27:48.641Z,0.00
2019-02-20T01:28:48.636Z,0.00
2019-02-20T01:29:48.546Z,0.00
2019-02-20T01:30:48.500Z,0.00
2019-02-20T01:31:48.461Z,0.00
2019-02-20T01:32:48.418Z,0.00
2019-02-20T01:33:48.365Z,0.00
2019-02-20T01:34:48.351Z,0.00
2019-02-20T01:35:48.298Z,0.00
2019-02-20T01:36:48.234Z,0.00
2019-02-20T01:37:48.201Z,0.00
2019-02-20T01:38:48.153Z,0.00
2019-02-20T01:39:49.455Z,0.00
2019-02-20T01:40:48.098Z,0.00
2019-02-20T01:41:48.006Z,0.00
2019-02-20T01:42:47.971Z,0.00
2019-02-20T01:43:47.918Z,0.00
2019-02-20T01:44:47.868Z,0.00
2019-02-20T01:45:47.840Z,0.00
2019-02-20T01:46:47.817Z,0.00
2019-02-20T01:47:47.754Z,0.00
2019-02-20T01:48:47.704Z,0.00
2019-02-20T01:49:47.657Z,0.00
2019-02-20T01:50:47.614Z,0.00
2019-02-20T01:51:47.585Z,0.00
2019-02-20T01:52:47.516Z,0.00
2019-02-20T01:53:47.471Z,0.00
2019-02-20T01:54:47.429Z,0.00
2019-02-20T01:55:47.390Z,0.00
2019-02-20T01:56:47.368Z,0.00
2019-02-20T01:57:47.295Z,0.00
2019-02-20T01:58:47.250Z,0.00
2019-02-20T01:59:47.203Z,0.00
2019-02-20T02:00:47.157Z,0.00
2019-02-20T02:01:47.146Z,0.00
2019-02-20T02:02:47.090Z,0.00
2019-02-20T02:03:47.020Z,0.00
2019-02-20T02:04:46.990Z,0.00
2019-02-20T02:05:46.928Z,0.00
2019-02-20T02:06:46.890Z,0.00
2019-02-20T02:07:46.861Z,0.00
2019-02-20T02:08:46.786Z,0.00
2019-02-20T02:09:46.755Z,0.00
2019-02-20T02:10:46.710Z,0.00
2019-02-20T02:11:46.667Z,0.00
2019-02-20T02:12:46.640Z,0.00
2019-02-20T02:13:46.566Z,0.00
2019-02-20T02:14:46.520Z,0.00
2019-02-20T02:15:46.473Z,0.00
2019-02-20T02:16:46.428Z,0.00
2019-02-20T02:17:46.390Z,0.00
2019-02-20T02:18:46.379Z,0.00
2019-02-20T02:19:46.295Z,0.00
2019-02-20T02:20:46.257Z,0.00
2019-02-20T02:21:46.243Z,0.00
2019-02-20T02:22:46.166Z,0.00
2019-02-20T02:23:47.673Z,0.00
2019-02-20T02:24:46.077Z,0.00
2019-02-20T02:25:46.023Z,0.00
2019-02-20T02:26:45.982Z,0.00
2019-02-20T02:27:45.934Z,0.00
2019-02-20T02:28:45.887Z,0.00
2019-02-20T02:29:45.876Z,0.00
2019-02-20T02:30:45.807Z,0.00
2019-02-20T02:31:45.766Z,0.00
2019-02-20T02:32:45.711Z,0.00
2019-02-20T02:33:45.662Z,0.00
2019-02-20T02:34:45.614Z,0.00
2019-02-20T02:35:45.606Z,0.00
2019-02-20T02:36:45.533Z,0.00
2019-02-20T02:37:45.492Z,0.00
2019-02-20T02:38:45.459Z,0.00
2019-02-20T02:39:45.387Z,0.00
2019-02-20T02:40:45.374Z,0.00
2019-02-20T02:41:45.302Z,0.00
2019-02-20T02:42:45.263Z,0.00
2019-02-20T02:43:45.246Z,0.00
2019-02-20T02:44:45.172Z,0.00
2019-02-20T02:45:45.116Z,0.00
2019-02-20T02:46:45.075Z,0.00
2019-02-20T02:47:45.026Z,0.00
2019-02-20T02:48:45.033Z,0.00
2019-02-20T02:49:44.941Z,0.00
2019-02-20T02:50:44.894Z,0.00
2019-02-20T02:51:44.852Z,0.00
2019-02-20T02:52:44.801Z,0.00
2019-02-20T02:53:44.793Z,0.00
2019-02-20T02:54:44.725Z,0.00
2019-02-20T02:55:44.679Z,0.00
2019-02-20T02:56:44.626Z,0.00
2019-02-20T02:57:44.589Z,0.00
2019-02-20T02:58:44.555Z,0.00
2019-02-20T02:59:44.519Z,0.00
2019-02-20T03:00:44.435Z,0.00
2019-02-20T03:01:44.400Z,0.00
2019-02-20T03:02:44.361Z,0.00
2019-02-20T03:03:44.313Z,0.00
2019-02-20T03:04:44.288Z,0.00
2019-02-20T03:05:44.215Z,0.00
2019-02-20T03:06:44.176Z,0.00
2019-02-20T03:07:44.136Z,0.00
2019-02-20T03:08:44.084Z,0.00
2019-02-20T03:09:44.035Z,0.00
2019-02-20T03:10:44.022Z,0.00
2019-02-20T03:11:43.948Z,0.00
2019-02-20T03:12:43.914Z,0.00
2019-02-20T03:13:43.863Z,0.00
2019-02-20T03:14:43.816Z,0.00
2019-02-20T03:15:43.789Z,0.00
2019-02-20T03:16:43.727Z,0.00
2019-02-20T03:17:43.671Z,0.00
2019-02-20T03:18:43.626Z,0.00
2019-02-20T03:19:43.576Z,0.00
2019-02-20T03:20:43.559Z,0.00
2019-02-20T03:21:43.495Z,0.00
2019-02-20T03:22:43.448Z,0.00
2019-02-20T03:23:43.398Z,0.00
2019-02-20T03:24:43.354Z,0.00
2019-02-20T03:25:43.341Z,0.00
2019-02-20T03:26:43.266Z,0.00
2019-02-20T03:27:43.234Z,0.00
2019-02-20T03:28:43.179Z,0.00
2019-02-20T03:29:43.128Z,0.00
2019-02-20T03:30:43.092Z,0.00
2019-02-20T03:31:43.064Z,0.00
2019-02-20T03:32:42.996Z,0.00
2019-02-20T03:33:42.964Z,0.00
2019-02-20T03:34:42.939Z,0.00
2019-02-20T03:35:42.862Z,0.00
2019-02-20T03:36:42.819Z,0.00
2019-02-20T03:37:42.767Z,0.00
2019-02-20T03:38:42.719Z,0.00
2019-02-20T03:39:42.692Z,0.00
2019-02-20T03:40:42.669Z,0.00
2019-02-20T03:41:42.585Z,0.00
2019-02-20T03:42:42.567Z,0.00
2019-02-20T03:43:42.500Z,0.00
2019-02-20T03:44:42.457Z,0.00
2019-02-20T03:45:42.413Z,0.00
2019-02-20T03:46:42.392Z,0.00
2019-02-20T03:47:42.326Z,0.00
2019-02-20T03:48:42.303Z,0.00
2019-02-20T03:49:42.228Z,0.00
2019-02-20T03:50:42.186Z,0.00
2019-02-20T03:51:42.169Z,0.00
2019-02-20T03:52:42.098Z,0.00
2019-02-20T03:53:51.281Z,0.00
2019-02-20T03:54:42.006Z,0.00
2019-02-20T03:55:41.953Z,0.00
2019-02-20T03:56:41.919Z,0.00
2019-02-20T03:57:41.901Z,0.00
2019-02-20T03:58:41.839Z,0.00
2019-02-20T03:59:41.782Z,0.00
2019-02-20T04:00:41.740Z,0.00
2019-02-20T04:01:41.695Z,0.00
2019-02-20T04:02:41.653Z,0.00
2019-02-20T04:03:41.626Z,0.00
2019-02-20T04:04:41.561Z,0.00
2019-02-20T04:05:41.510Z,0.00
2019-02-20T04:06:41.486Z,0.00
2019-02-20T04:07:41.424Z,0.00
2019-02-20T04:08:41.401Z,0.00
2019-02-20T04:09:41.352Z,0.00
2019-02-20T04:10:41.285Z,0.00
2019-02-20T04:11:41.248Z,0.00
2019-02-20T04:12:41.233Z,0.00
2019-02-20T04:13:41.177Z,0.00
2019-02-20T04:14:41.101Z,0.00
2019-02-20T04:15:41.063Z,0.00
2019-02-20T04:16:41.014Z,0.00
2019-02-20T04:17:40.971Z,0.00
2019-02-20T04:18:40.975Z,0.00
2019-02-20T04:19:40.925Z,0.00
2019-02-20T04:20:40.837Z,0.00
2019-02-20T04:21:40.784Z,0.00
2019-02-20T04:22:40.746Z,0.00
2019-02-20T04:23:40.700Z,0.00
2019-02-20T04:24:40.681Z,0.00
2019-02-20T04:25:40.615Z,0.00
2019-02-20T04:26:40.572Z,0.00
2019-02-20T04:27:40.519Z,0.00
2019-02-20T04:28:40.478Z,0.00
2019-02-20T04:29:40.435Z,0.00
2019-02-20T04:30:40.419Z,0.00
2019-02-20T04:31:40.347Z,0.00
2019-02-20T04:32:40.305Z,0.00
2019-02-20T04:33:40.257Z,0.00
2019-02-20T04:34:40.217Z,0.00
2019-02-20T04:35:40.192Z,0.00
2019-02-20T04:36:40.124Z,0.00
2019-02-20T04:37:40.104Z,0.00
2019-02-20T04:38:40.040Z,0.00
2019-02-20T04:39:40.011Z,0.00
2019-02-20T04:40:39.969Z,0.00
2019-02-20T04:41:39.901Z,0.00
2019-02-20T04:42:39.851Z,0.00
2019-02-20T04:43:39.809Z,0.00
2019-02-20T04:44:39.777Z,0.00
2019-02-20T04:45:39.752Z,0.00
2019-02-20T04:46:39.669Z,0.00
2019-02-20T04:47:39.628Z,0.00
2019-02-20T04:48:39.579Z,0.00
2019-02-20T04:49:39.548Z,0.00
2019-02-20T04:50:39.544Z,0.00
2019-02-20T04:51:39.456Z,0.00
2019-02-20T04:52:39.411Z,0.00
2019-02-20T04:53:39.360Z,0.00
2019-02-20T04:54:39.316Z,0.00
2019-02-20T04:55:39.287Z,0.00
2019-02-20T04:56:39.249Z,0.00
2019-02-20T04:57:39.196Z,0.00
2019-02-20T04:58:39.146Z,0.00
2019-02-20T04:59:39.085Z,0.00
2019-02-20T05:00:39.045Z,0.00
2019-02-20T05:01:39.031Z,0.00
2019-02-20T05:02:38.972Z,0.00
2019-02-20T05:03:38.917Z,0.00
2019-02-20T05:04:38.872Z,0.00
2019-02-20T05:05:38.838Z,0.00
2019-02-20T05:06:38.807Z,0.00
2019-02-20T05:07:38.733Z,0.00
2019-02-20T05:08:38.682Z,0.00
2019-02-20T05:09:39.691Z,0.00
2019-02-20T05:10:38.596Z,0.00
2019-02-20T05:11:38.560Z,0.00
2019-02-20T05:12:38.533Z,0.00
2019-02-20T05:13:38.466Z,0.00
2019-02-20T05:14:38.416Z,0.00
2019-02-20T05:15:38.379Z,0.00
2019-02-20T05:16:38.330Z,0.00
2019-02-20T05:17:38.299Z,0.00
2019-02-20T05:18:38.234Z,0.00
2019-02-20T05:19:38.200Z,0.00
2019-02-20T05:20:38.150Z,0.00
2019-02-20T05:21:38.104Z,0.00
2019-02-20T05:22:38.111Z,0.00
2019-02-20T05:23:38.014Z,0.00
2019-02-20T05:24:37.970Z,0.00
2019-02-20T05:25:37.922Z,0.00
2019-02-20T05:26:37.913Z,0.00
2019-02-20T05:27:37.829Z,0.00
2019-02-20T05:28:37.806Z,0.00
2019-02-20T05:29:37.746Z,0.00
2019-02-20T05:30:37.708Z,0.00
2019-02-20T05:31:37.653Z,0.00
2019-02-20T05:32:37.611Z,0.00
2019-02-20T05:33:37.594Z,0.00
2019-02-20T05:34:37.558Z,0.00
2019-02-20T05:35:37.487Z,0.00
2019-02-20T05:36:37.444Z,0.00
2019-02-20T05:37:39.608Z,0.00
2019-02-20T05:38:37.337Z,0.00
2019-02-20T05:39:37.298Z,0.00
2019-02-20T05:40:37.252Z,0.00
2019-02-20T05:41:37.221Z,0.00
2019-02-20T05:42:37.199Z,0.00
2019-02-20T05:43:37.122Z,0.00
2019-02-20T05:44:37.078Z,0.00
2019-02-20T05:45:37.027Z,0.00
2019-02-20T05:46:36.986Z,0.00
2019-02-20T05:47:36.942Z,0.00
2019-02-20T05:48:36.921Z,0.00
2019-02-20T05:49:36.867Z,0.00
2019-02-20T05:50:36.798Z,0.00
2019-02-20T05:51:36.754Z,0.00
2019-02-20T05:52:36.737Z,0.00
2019-02-20T05:53:36.689Z,0.00
2019-02-20T05:54:36.628Z,0.00
2019-02-20T05:55:36.581Z,0.00
2019-02-20T05:56:36.541Z,0.00
2019-02-20T05:57:36.603Z,0.00
2019-02-20T05:58:36.444Z,0.00
2019-02-20T05:59:36.401Z,0.00
2019-02-20T06:00:36.353Z,0.00
2019-02-20T06:01:36.340Z,0.00
2019-02-20T06:02:36.294Z,0.00
2019-02-20T06:03:36.221Z,0.00
2019-02-20T06:04:36.178Z,0.00
2019-02-20T06:05:36.162Z,4.00
2019-02-20T06:06:36.085Z,4.00
2019-02-20T06:07:36.044Z,4.00
2019-02-20T06:08:36.001Z,4.00
2019-02-20T06:09:35.945Z,4.00
2019-02-20T06:10:35.924Z,8.00
2019-02-20T06:11:35.860Z,4.00
2019-02-20T06:12:35.846Z,8.00
2019-02-20T06:13:35.794Z,8.00
2019-02-20T06:14:35.727Z,12.00
2019-02-20T06:15:35.685Z,12.00
2019-02-20T06:16:35.659Z,16.00
2019-02-20T06:17:35.614Z,20.00
2019-02-20T06:18:35.543Z,20.00
2019-02-20T06:19:35.499Z,20.00
2019-02-20T06:20:35.458Z,28.00
2019-02-20T06:21:35.432Z,32.00
2019-02-20T06:22:35.375Z,36.00
2019-02-20T06:23:35.316Z,44.00
2019-02-20T06:24:43.916Z,52.00
2019-02-20T06:25:35.245Z,60.00
2019-02-20T06:26:35.214Z,72.00
2019-02-20T06:27:35.143Z,80.00
2019-02-20T06:28:35.102Z,92.00
2019-02-20T06:29:35.044Z,100.00
2019-02-20T06:30:35.013Z,104.00
2019-02-20T06:31:34.995Z,112.00
2019-02-20T06:32:34.908Z,116.00
2019-02-20T06:33:34.878Z,124.00
2019-02-20T06:34:34.818Z,132.00
2019-02-20T06:35:34.766Z,140.00
2019-02-20T06:36:34.740Z,152.00
2019-02-20T06:37:34.707Z,168.00
2019-02-20T06:38:34.643Z,184.00
2019-02-20T06:39:34.591Z,200.00
2019-02-20T06:40:34.561Z,224.00
2019-02-20T06:41:39.195Z,240.00
2019-02-20T06:42:34.454Z,268.00
2019-02-20T06:43:34.411Z,296.00
2019-02-20T06:44:34.356Z,328.00
2019-02-20T06:45:34.319Z,356.00
2019-02-20T06:46:34.274Z,388.00
2019-02-20T06:47:34.258Z,412.00
2019-02-20T06:48:34.182Z,444.00
2019-02-20T06:49:34.128Z,476.00
2019-02-20T06:50:34.085Z,512.00
2019-02-20T06:51:34.046Z,544.00
2019-02-20T06:52:34.001Z,588.00
2019-02-20T06:53:33.973Z,648.00
2019-02-20T06:54:33.900Z,688.00
2019-02-20T06:55:33.861Z,724.00
2019-02-20T06:56:33.811Z,768.00
2019-02-20T06:57:33.775Z,808.00
2019-02-20T06:58:33.754Z,844.00
2019-02-20T06:59:33.685Z,900.00
2019-02-20T07:00:33.638Z,960.00
2019-02-20T07:01:33.587Z,988.00
2019-02-20T07:02:33.544Z,1020.00
2019-02-20T07:03:33.498Z,1072.00
2019-02-20T07:04:33.474Z,1136.00
2019-02-20T07:05:33.414Z,1212.00
2019-02-20T07:06:33.368Z,1268.00
2019-02-20T07:07:33.317Z,1324.00
2019-02-20T07:08:33.271Z,1384.00
2019-02-20T07:09:33.284Z,1440.00
2019-02-20T07:10:33.193Z,1508.00
2019-02-20T07:11:33.143Z,1588.00
2019-02-20T07:12:33.100Z,1624.00
2019-02-20T07:13:33.050Z,1668.00
2019-02-20T07:14:33.006Z,1748.00
2019-02-20T07:15:32.982Z,1956.00
2019-02-20T07:16:32.911Z,2264.00
2019-02-20T07:17:32.875Z,2588.00
2019-02-20T07:18:32.833Z,2736.00
2019-02-20T07:19:32.786Z,2800.00
2019-02-20T07:20:32.766Z,2852.00
2019-02-20T07:21:32.689Z,3000.00
2019-02-20T07:22:32.648Z,3104.00
2019-02-20T07:23:32.607Z,3092.00
2019-02-20T07:24:32.566Z,3104.00
2019-02-20T07:25:32.539Z,3192.00
2019-02-20T07:26:32.473Z,3280.00
2019-02-20T07:27:32.424Z,3188.00
2019-02-20T07:28:32.381Z,3172.00
2019-02-20T07:29:32.342Z,3212.00
2019-02-20T07:30:32.297Z,3236.00
2019-02-20T07:31:32.282Z,3240.00
2019-02-20T07:32:32.208Z,3304.00
2019-02-20T07:33:32.160Z,3320.00
2019-02-20T07:34:32.115Z,3056.00
2019-02-20T07:35:32.068Z,2924.00
2019-02-20T07:36:32.047Z,2980.00
2019-02-20T07:37:31.990Z,2968.00
2019-02-20T07:38:31.945Z,3008.00
2019-02-20T07:39:31.894Z,3064.00
2019-02-20T07:40:31.844Z,3180.00
2019-02-20T07:41:31.836Z,3344.00
2019-02-20T07:42:31.768Z,3460.00
2019-02-20T07:43:31.721Z,3544.00
2019-02-20T07:44:31.692Z,3708.00
2019-02-20T07:45:31.626Z,3884.00
2019-02-20T07:46:31.615Z,4036.00
2019-02-20T07:47:31.536Z,4240.00
2019-02-20T07:48:31.498Z,4424.00
2019-02-20T07:49:31.463Z,4616.00
2019-02-20T07:50:31.418Z,5400.00
2019-02-20T07:51:31.386Z,6552.00
2019-02-20T07:52:31.354Z,6776.00
2019-02-20T07:53:31.277Z,6436.00
2019-02-20T07:54:31.234Z,6156.00
2019-02-20T07:55:31.196Z,6752.00
2019-02-20T07:56:31.152Z,6496.00
2019-02-20T07:57:31.133Z,5876.00
2019-02-20T07:58:31.054Z,5164.00
2019-02-20T07:59:31.012Z,5324.00
2019-02-20T08:00:30.970Z,5684.00
2019-02-20T08:01:30.935Z,6672.00
2019-02-20T08:02:30.891Z,6460.00
2019-02-20T08:03:30.878Z,7364.00
2019-02-20T08:04:30.803Z,7460.00
2019-02-20T08:05:30.771Z,7776.00
2019-02-20T08:06:30.710Z,8588.00
2019-02-20T08:07:30.665Z,8856.00
2019-02-20T08:08:30.649Z,8676.00
2019-02-20T08:09:30.589Z,9656.00
2019-02-20T08:10:30.541Z,9904.00
2019-02-20T08:11:30.494Z,10200.00
2019-02-20T08:12:30.457Z,10860.00
2019-02-20T08:13:38.875Z,11112.00
2019-02-20T08:14:30.374Z,11528.00
2019-02-20T08:15:30.328Z,11940.00
2019-02-20T08:16:30.285Z,12704.00
2019-02-20T08:17:30.244Z,13488.00
2019-02-20T08:18:30.224Z,12740.00
2019-02-20T08:19:30.158Z,12320.00
2019-02-20T08:20:30.112Z,12040.00
2019-02-20T08:21:30.082Z,11616.00
2019-02-20T08:22:30.044Z,11260.00
2019-02-20T08:23:30.019Z,10884.00
2019-02-20T08:24:29.955Z,10416.00
2019-02-20T08:25:29.907Z,9704.00
2019-02-20T08:26:29.871Z,8964.00
2019-02-20T08:27:29.834Z,8416.00
2019-02-20T08:28:29.790Z,7968.00
2019-02-20T08:29:29.758Z,7768.00
2019-02-20T08:30:29.694Z,7788.00
2019-02-20T08:31:29.652Z,7920.00
2019-02-20T08:32:29.608Z,8040.00
2019-02-20T08:33:29.576Z,8260.00
2019-02-20T08:34:29.559Z,8548.00
2019-02-20T08:35:29.496Z,8860.00
2019-02-20T08:36:29.446Z,9228.00
2019-02-20T08:37:29.414Z,9560.00
2019-02-20T08:38:29.355Z,9824.00
2019-02-20T08:39:29.395Z,10056.00
2019-02-20T08:40:29.274Z,10264.00
2019-02-20T08:41:29.238Z,10520.00
2019-02-20T08:42:29.220Z,10744.00
2019-02-20T08:43:29.149Z,10928.00
2019-02-20T08:44:29.119Z,11136.00
2019-02-20T08:45:29.096Z,11404.00
2019-02-20T08:46:29.026Z,11028.00
2019-02-20T08:47:28.989Z,10548.00
2019-02-20T08:48:28.953Z,10252.00
2019-02-20T08:49:28.904Z,10080.00
2019-02-20T08:50:28.880Z,9904.00
2019-02-20T08:51:28.818Z,9744.00
2019-02-20T08:52:28.770Z,9716.00
2019-02-20T08:53:28.735Z,9896.00
2019-02-20T08:54:28.693Z,10116.00
2019-02-20T08:55:32.055Z,10252.00
2019-02-20T08:56:28.617Z,10512.00
2019-02-20T08:57:28.580Z,10832.00
2019-02-20T08:58:28.524Z,10776.00
2019-02-20T08:59:28.499Z,11020.00
2019-02-20T09:00:28.442Z,11176.00
2019-02-20T09:01:28.421Z,11420.00
2019-02-20T09:02:28.356Z,11784.00
2019-02-20T09:03:28.324Z,12144.00
2019-02-20T09:04:28.273Z,12808.00
2019-02-20T09:05:28.243Z,14084.00
2019-02-20T09:06:28.198Z,13876.00
2019-02-20T09:07:28.166Z,14060.00
2019-02-20T09:08:28.103Z,14388.00
2019-02-20T09:09:28.053Z,14556.00
2019-02-20T09:10:28.014Z,14684.00
2019-02-20T09:11:27.998Z,14376.00
2019-02-20T09:12:27.928Z,13988.00
2019-02-20T09:13:27.893Z,13740.00
2019-02-20T09:14:27.867Z,13488.00
2019-02-20T09:15:27.802Z,13228.00
2019-02-20T09:16:27.765Z,13096.00
2019-02-20T09:17:27.760Z,13048.00
2019-02-20T09:18:27.712Z,12976.00
2019-02-20T09:19:27.651Z,13152.00
2019-02-20T09:20:27.600Z,13568.00
2019-02-20T09:21:27.562Z,13548.00
2019-02-20T09:22:27.522Z,13740.00
2019-02-20T09:23:27.506Z,13856.00
2019-02-20T09:24:27.439Z,13984.00
2019-02-20T09:25:27.400Z,14580.00
2019-02-20T09:26:27.358Z,14268.00
2019-02-20T09:27:27.342Z,14208.00
2019-02-20T09:28:27.277Z,14016.00
2019-02-20T09:29:27.227Z,13800.00
2019-02-20T09:30:28.912Z,13976.00
2019-02-20T09:31:27.150Z,14580.00
2019-02-20T09:32:27.135Z,14836.00
2019-02-20T09:33:27.059Z,15684.00
2019-02-20T09:34:27.017Z,14144.00
2019-02-20T09:35:26.977Z,14092.00
2019-02-20T09:36:26.936Z,14240.00
2019-02-20T09:37:26.901Z,15348.00
2019-02-20T09:38:26.892Z,17216.00
2019-02-20T09:39:26.825Z,19168.00
2019-02-20T09:40:26.780Z,20672.00
2019-02-20T09:41:26.732Z,22208.00
2019-02-20T09:42:26.694Z,21856.00
2019-02-20T09:43:26.656Z,22912.00
2019-02-20T09:44:26.638Z,22272.00
2019-02-20T09:45:26.582Z,22976.00
2019-02-20T09:46:26.539Z,23424.00
2019-02-20T09:47:26.491Z,23488.00
2019-02-20T09:48:26.452Z,22240.00
2019-02-20T09:49:26.422Z,19840.00
2019-02-20T09:50:26.416Z,21344.00
2019-02-20T09:51:26.367Z,21664.00
2019-02-20T09:52:26.305Z,23456.00
2019-02-20T09:53:26.258Z,25344.00
2019-02-20T09:54:26.220Z,22336.00
2019-02-20T09:55:26.183Z,22048.00
2019-02-20T09:56:26.167Z,20416.00
2019-02-20T09:57:26.113Z,18240.00
2019-02-20T09:58:26.079Z,20128.00
2019-02-20T09:59:26.042Z,18464.00
2019-02-20T10:00:26.002Z,21152.00
2019-02-20T10:01:26.155Z,18496.00
2019-02-20T10:02:25.922Z,19776.00
2019-02-20T10:03:25.891Z,20160.00
2019-02-20T10:04:25.854Z,15596.00
2019-02-20T10:05:25.810Z,17760.00
2019-02-20T10:06:25.773Z,16220.00
2019-02-20T10:07:25.760Z,14064.00
2019-02-20T10:08:25.699Z,15940.00
2019-02-20T10:09:25.669Z,18048.00
2019-02-20T10:10:25.661Z,13012.00
2019-02-20T10:11:25.593Z,12764.00
2019-02-20T10:12:25.556Z,15980.00
2019-02-20T10:13:25.515Z,17792.00
2019-02-20T10:14:25.503Z,15492.00
2019-02-20T10:15:25.440Z,14948.00
2019-02-20T10:16:25.402Z,13424.00
2019-02-20T10:17:27.223Z,15008.00
2019-02-20T10:18:25.359Z,14540.00
2019-02-20T10:19:25.292Z,13472.00
2019-02-20T10:20:25.278Z,14480.00
2019-02-20T10:21:25.247Z,14428.00
2019-02-20T10:22:25.185Z,16296.00
2019-02-20T10:23:25.148Z,16160.00
2019-02-20T10:24:25.127Z,14680.00
2019-02-20T10:25:25.070Z,17024.00
2019-02-20T10:26:25.055Z,17440.00
2019-02-20T10:27:24.991Z,15996.00
2019-02-20T10:28:24.962Z,16928.00
2019-02-20T10:29:24.935Z,16336.00
2019-02-20T10:30:24.906Z,17536.00
2019-02-20T10:31:24.879Z,17664.00
2019-02-20T10:32:24.820Z,17056.00
2019-02-20T10:33:24.775Z,17984.00
2019-02-20T10:34:24.743Z,19360.00
2019-02-20T10:35:24.733Z,19136.00
2019-02-20T10:36:24.679Z,19264.00
2019-02-20T10:37:24.634Z,19008.00
2019-02-20T10:38:24.591Z,17760.00
2019-02-20T10:39:24.554Z,17184.00
2019-02-20T10:40:24.547Z,17280.00
2019-02-20T10:41:24.492Z,17376.00
2019-02-20T10:42:24.499Z,17088.00
2019-02-20T10:43:24.427Z,16088.00
2019-02-20T10:44:24.387Z,14292.00
2019-02-20T10:45:24.345Z,14276.00
2019-02-20T10:46:24.308Z,15448.00
2019-02-20T10:47:24.295Z,15020.00
2019-02-20T10:48:24.233Z,15260.00
2019-02-20T10:49:24.206Z,15628.00
2019-02-20T10:50:24.174Z,15496.00
2019-02-20T10:51:24.127Z,15176.00
2019-02-20T10:52:24.120Z,15020.00
2019-02-20T10:53:24.065Z,14744.00
2019-02-20T10:54:24.027Z,14596.00
2019-02-20T10:55:23.991Z,14312.00
2019-02-20T10:56:23.958Z,13504.00
2019-02-20T10:57:23.910Z,12948.00
2019-02-20T10:58:23.893Z,12592.00
2019-02-20T10:59:23.834Z,12060.00
2019-02-20T11:00:24.525Z,12500.00
2019-02-20T11:01:23.768Z,12736.00
2019-02-20T11:02:23.730Z,13140.00
2019-02-20T11:03:23.719Z,13708.00
2019-02-20T11:04:23.680Z,14796.00
2019-02-20T11:05:23.617Z,16076.00
2019-02-20T11:06:23.574Z,18112.00
2019-02-20T11:07:23.547Z,19040.00
2019-02-20T11:08:23.537Z,17280.00
2019-02-20T11:09:23.462Z,16392.00
2019-02-20T11:10:24.095Z,17312.00
2019-02-20T11:11:23.389Z,17696.00
2019-02-20T11:12:23.353Z,19520.00
2019-02-20T11:13:23.319Z,18176.00
2019-02-20T11:14:23.309Z,16100.00
2019-02-20T11:15:23.256Z,16472.00
2019-02-20T11:16:23.212Z,16512.00
2019-02-20T11:17:23.163Z,17056.00
2019-02-20T11:18:23.124Z,16644.00
2019-02-20T11:19:23.093Z,18784.00
2019-02-20T11:20:23.094Z,19232.00
2019-02-20T11:21:23.022Z,18496.00
2019-02-20T11:22:22.980Z,19872.00
2019-02-20T11:23:22.939Z,19360.00
2019-02-20T11:24:22.903Z,18400.00
2019-02-20T11:25:22.897Z,17824.00
2019-02-20T11:26:22.842Z,17568.00
2019-02-20T11:27:22.800Z,17408.00
2019-02-20T11:28:26.940Z,17152.00
2019-02-20T11:29:22.717Z,17792.00
2019-02-20T11:30:22.714Z,17312.00
2019-02-20T11:31:22.670Z,16620.00
2019-02-20T11:32:22.609Z,16376.00
2019-02-20T11:33:22.580Z,15660.00
2019-02-20T11:34:22.544Z,14616.00
2019-02-20T11:35:22.506Z,14752.00
2019-02-20T11:36:22.492Z,15216.00
2019-02-20T11:37:22.427Z,15192.00
2019-02-20T11:38:22.390Z,15520.00
2019-02-20T11:39:22.354Z,15588.00
2019-02-20T11:40:22.321Z,15884.00
2019-02-20T11:41:22.305Z,16088.00
2019-02-20T11:42:22.238Z,16464.00
2019-02-20T11:43:22.201Z,16232.00
2019-02-20T11:44:22.167Z,15444.00
2019-02-20T11:45:22.143Z,14972.00
2019-02-20T11:46:22.118Z,14240.00
2019-02-20T11:47:22.059Z,14284.00
2019-02-20T11:48:22.024Z,14236.00
2019-02-20T11:49:21.978Z,14868.00
2019-02-20T11:50:21.943Z,15692.00
2019-02-20T11:51:21.933Z,16780.00
2019-02-20T11:52:21.867Z,16484.00
2019-02-20T11:53:21.837Z,16192.00
2019-02-20T11:54:21.798Z,15532.00
2019-02-20T11:55:21.761Z,15280.00
2019-02-20T11:56:26.651Z,15892.00
2019-02-20T11:57:21.708Z,14968.00
2019-02-20T11:58:21.671Z,13980.00
2019-02-20T11:59:21.618Z,13896.00
2019-02-20T12:00:21.571Z,13928.00
2019-02-20T12:01:21.606Z,14548.00
2019-02-20T12:02:21.490Z,15304.00
2019-02-20T12:03:21.452Z,16412.00
2019-02-20T12:04:21.415Z,15912.00
2019-02-20T12:05:21.387Z,16484.00
2019-02-20T12:06:21.358Z,18048.00
2019-02-20T12:07:21.337Z,18656.00
2019-02-20T12:08:21.272Z,19264.00
2019-02-20T12:09:21.227Z,18752.00
2019-02-20T12:10:21.185Z,18656.00
2019-02-20T12:11:21.157Z,17952.00
2019-02-20T12:12:21.142Z,17632.00
2019-02-20T12:13:21.077Z,15924.00
2019-02-20T12:14:24.174Z,15160.00
2019-02-20T12:15:21.002Z,14048.00
2019-02-20T12:16:20.964Z,13168.00
2019-02-20T12:17:20.961Z,12900.00
2019-02-20T12:18:20.898Z,12712.00
2019-02-20T12:19:20.866Z,12564.00
2019-02-20T12:20:20.825Z,12336.00
2019-02-20T12:21:20.777Z,11952.00
2019-02-20T12:22:20.743Z,12592.00
2019-02-20T12:23:20.730Z,13136.00
2019-02-20T12:24:20.665Z,12928.00
2019-02-20T12:25:20.633Z,12304.00
2019-02-20T12:26:20.601Z,12000.00
2019-02-20T12:27:20.566Z,11904.00
2019-02-20T12:28:20.520Z,12380.00
2019-02-20T12:29:20.510Z,13176.00
2019-02-20T12:30:20.448Z,13568.00
2019-02-20T12:31:20.419Z,13556.00
2019-02-20T12:32:20.371Z,13536.00
2019-02-20T12:33:20.329Z,13912.00
2019-02-20T12:34:20.318Z,13836.00